Time;durP1;ratioP1;P1;durP2;ratioP2;P2;SDS_P1;SDS_P2;PMS_P1;PMS_P2;Temp;Humidity;BMP_temperature;BMP_pressure;BME280_temperature;BME280_humidity;BME280_pressure;Samples;Min_cycle;Max_cycle;Signal;HPM_P1;HPM_P2
2021/07/16 00:00:14;;;;;;;14.20;3.80;;;;;;;29.11;62.62;101035.78;5042222;28;70671;-35
2021/07/16 00:02:46;;;;;;;6.30;4.80;;;;;;;29.05;64.06;101018.53;5071187;27;66753;-36
2021/07/16 00:05:18;;;;;;;5.88;5.28;;;;;;;29.16;63.59;101027.91;5075939;27;69497;-35
2021/07/16 00:07:48;;;;;;;6.05;4.88;;;;;;;29.23;63.87;101028.75;5068085;27;66843;-36
2021/07/16 00:10:22;;;;;;;5.85;5.45;;;;;;;29.26;64.81;101031.06;5068700;27;43415;-35
2021/07/16 00:12:52;;;;;;;5.95;5.38;;;;;;;29.31;65.18;101028.56;5067706;27;65330;-34
2021/07/16 00:15:22;;;;;;;6.68;5.32;;;;;;;29.36;65.06;101026.09;5069185;27;70500;-37
2021/07/16 00:17:52;;;;;;;9.23;5.97;;;;;;;29.37;65.76;101019.63;5069742;27;66062;-37
2021/07/16 00:20:22;;;;;;;5.93;5.40;;;;;;;29.44;65.37;101025.03;5066833;27;69556;-38
2021/07/16 00:22:53;;;;;;;6.50;6.00;;;;;;;29.47;66.04;101021.06;5073831;27;65958;-35
2021/07/16 00:25:23;;;;;;;6.97;5.65;;;;;;;29.51;67.27;101025.03;5057308;28;69898;-38
2021/07/16 00:27:53;;;;;;;24.00;5.63;;;;;;;29.51;66.90;101025.03;5066790;27;65237;-36
2021/07/16 00:30:23;;;;;;;27.75;6.80;;;;;;;29.53;67.25;101022.94;5072934;27;70295;-33
2021/07/16 00:32:53;;;;;;;14.10;5.43;;;;;;;29.55;67.65;101020.88;5071488;27;65511;-38
2021/07/16 00:35:23;;;;;;;10.63;5.28;;;;;;;29.60;67.08;101026.50;5068079;27;70183;-36
2021/07/16 00:37:53;;;;;;;5.35;4.97;;;;;;;29.62;68.23;101025.25;5070418;27;65640;-34
2021/07/16 00:40:25;;;;;;;4.63;4.03;;;;;;;29.67;67.51;101030.06;5067925;27;69857;-36
2021/07/16 00:42:55;;;;;;;8.38;6.53;;;;;;;29.68;67.94;101023.63;5068939;27;65273;-34
2021/07/16 00:45:25;;;;;;;6.90;6.15;;;;;;;29.71;66.88;101028.59;5067678;27;69695;-35
2021/07/16 00:48:01;;;;;;;9.23;7.95;;;;;;;29.72;67.79;101019.44;5072899;27;65460;-35
2021/07/16 00:50:34;;;;;;;7.43;6.68;;;;;;;29.78;67.73;101024.03;5068020;27;69256;-38
2021/07/16 00:53:09;;;;;;;6.07;5.32;;;;;;;29.53;67.37;100977.84;5056192;28;64982;-35
2021/07/16 00:55:39;;;;;;;6.30;5.10;;;;;;;29.75;67.35;101013.59;5062901;27;69932;-35
2021/07/16 00:58:10;;;;;;;4.32;4.03;;;;;;;29.89;67.17;101030.66;5066095;27;65759;-35
2021/07/16 01:00:40;;;;;;;5.72;4.32;;;;;;;29.87;66.62;101027.34;5069570;27;69512;-37
2021/07/16 01:03:12;;;;;;;5.32;4.47;;;;;;;29.81;67.33;101018.19;5072893;27;66999;-35
2021/07/16 01:05:42;;;;;;;6.40;5.90;;;;;;;29.98;67.42;101029.41;5068403;27;70117;-34
2021/07/16 01:08:13;;;;;;;6.40;5.78;;;;;;;29.97;66.92;101037.72;5069002;27;64534;-35
2021/07/16 01:10:43;;;;;;;6.78;5.50;;;;;;;30.04;67.17;101033.97;5070144;27;69529;-35
2021/07/16 01:13:13;;;;;;;7.93;4.70;;;;;;;30.01;67.04;101028.97;5069320;27;65912;-36
2021/07/16 01:15:44;;;;;;;8.73;4.55;;;;;;;30.00;67.02;101027.31;5087204;27;69028;-38
2021/07/16 01:18:14;;;;;;;4.30;3.90;;;;;;;30.12;66.65;101046.44;5091167;27;66297;-36
2021/07/16 01:20:45;;;;;;;7.10;3.97;;;;;;;30.15;67.08;101046.03;5079149;27;70332;-35
2021/07/16 01:23:23;;;;;;;3.58;3.30;;;;;;;30.22;67.13;101041.44;5075170;27;66303;-35
2021/07/16 01:25:54;;;;;;;5.50;4.45;;;;;;;30.25;66.56;101045.59;5072080;27;69016;-38
2021/07/16 01:28:24;;;;;;;10.52;5.65;;;;;;;30.25;66.65;101041.00;5073175;27;66097;-37
2021/07/16 01:30:54;;;;;;;6.07;4.70;;;;;;;30.27;66.97;101028.09;5070546;27;69573;-37
2021/07/16 01:33:25;;;;;;;6.28;4.57;;;;;;;30.39;66.81;101036.38;5076798;27;65847;-38
2021/07/16 01:35:56;;;;;;;5.50;4.32;;;;;;;30.41;67.14;101038.91;5075124;27;70372;-38
2021/07/16 01:38:27;;;;;;;9.77;4.90;;;;;;;30.17;67.29;100991.69;5059891;28;65964;-37
2021/07/16 01:40:58;;;;;;;9.38;4.07;;;;;;;30.43;66.57;101029.53;5072449;27;69098;-38
2021/07/16 01:43:29;;;;;;;7.57;4.07;;;;;;;30.43;66.87;101036.81;5068080;27;66556;-39
2021/07/16 01:45:59;;;;;;;4.53;4.07;;;;;;;30.45;67.15;101030.16;5069553;27;69985;-39
2021/07/16 01:48:30;;;;;;;4.93;3.92;;;;;;;30.45;67.17;101035.56;5057268;27;65030;-39
2021/07/16 01:51:00;;;;;;;4.13;3.83;;;;;;;30.41;67.34;101018.06;5071597;27;69653;-39
2021/07/16 01:53:30;;;;;;;6.57;3.38;;;;;;;30.48;67.60;101020.78;5068690;27;66155;-35
2021/07/16 01:56:00;;;;;;;3.63;2.45;;;;;;;30.56;67.56;101031.31;5073688;27;69450;-37
2021/07/16 01:58:31;;;;;;;4.53;2.47;;;;;;;30.39;67.46;100997.69;5071847;27;66273;-39
2021/07/16 02:01:02;;;;;;;6.43;2.65;;;;;;;30.61;67.54;101028.81;5080145;27;70162;-38
2021/07/16 02:03:33;;;;;;;6.77;2.70;;;;;;;30.64;67.55;101022.97;5070686;27;66062;-34
2021/07/16 02:06:03;;;;;;;7.97;3.03;;;;;;;30.64;66.97;101028.38;5070324;27;69735;-34
2021/07/16 02:08:33;;;;;;;7.13;2.72;;;;;;;30.67;66.96;101027.13;5080031;27;66827;-37
2021/07/16 02:11:03;;;;;;;9.98;2.28;;;;;;;30.69;67.18;101025.88;5065617;27;69166;-32
2021/07/16 02:13:34;;;;;;;8.27;2.30;;;;;;;30.70;67.03;101032.97;5065561;27;65779;-32
2021/07/16 02:16:04;;;;;;;5.15;2.60;;;;;;;30.62;66.60;101019.66;5069115;27;69718;-32
2021/07/16 02:18:34;;;;;;;7.07;2.15;;;;;;;30.73;66.50;101042.53;5067773;27;65286;-35
2021/07/16 02:21:08;;;;;;;6.32;2.20;;;;;;;30.77;66.69;101037.50;5066526;27;70121;-33
2021/07/16 02:23:38;;;;;;;7.13;2.30;;;;;;;30.78;66.33;101045.41;5050016;27;66915;-32
2021/07/16 02:26:08;;;;;;;6.40;2.00;;;;;;;30.80;66.09;101045.22;5065797;27;69706;-33
2021/07/16 02:28:39;;;;;;;2.72;2.50;;;;;;;30.82;65.47;101040.44;5051913;27;66341;-33
2021/07/16 02:31:12;;;;;;;2.33;2.13;;;;;;;30.86;65.57;101047.06;5067867;27;70008;-32
2021/07/16 02:33:43;;;;;;;3.80;2.25;;;;;;;30.86;65.31;101044.34;5073197;27;66741;-35
2021/07/16 02:36:15;;;;;;;5.40;2.42;;;;;;;30.89;65.18;101054.75;5035563;27;68131;-33
2021/07/16 02:38:45;;;;;;;2.13;1.70;;;;;;;30.89;65.10;101049.34;5068045;27;66369;-33
2021/07/16 02:41:15;;;;;;;2.35;2.15;;;;;;;30.90;65.49;101048.31;5072186;27;70334;-33
2021/07/16 02:43:45;;;;;;;4.78;2.28;;;;;;;30.87;65.25;101037.88;5066071;27;66744;-32
2021/07/16 02:46:15;;;;;;;3.15;1.67;;;;;;;30.92;65.14;101041.63;5066452;27;69290;-32
2021/07/16 02:48:45;;;;;;;3.45;2.08;;;;;;;30.95;65.21;101048.47;5072568;27;65847;-34
2021/07/16 02:51:16;;;;;;;1.98;1.85;;;;;;;30.96;64.88;101046.63;5060443;28;69838;-36
2021/07/16 02:53:46;;;;;;;2.63;2.17;;;;;;;30.99;65.17;101041.59;5069616;27;65442;-34
2021/07/16 02:56:16;;;;;;;5.53;2.08;;;;;;;31.02;64.96;101043.84;5070248;27;70072;-33
2021/07/16 02:58:47;;;;;;;5.03;2.20;;;;;;;31.00;64.80;101037.81;5070007;27;66546;-32
2021/07/16 03:01:17;;;;;;;2.22;2.03;;;;;;;31.06;64.73;101042.34;5068480;27;70518;-34
2021/07/16 03:03:48;;;;;;;6.60;2.27;;;;;;;31.06;65.30;101042.34;5049074;27;65446;-33
2021/07/16 03:06:18;;;;;;;3.85;2.08;;;;;;;31.11;64.92;101039.81;5065504;27;69329;-34
2021/07/16 03:08:48;;;;;;;5.72;1.80;;;;;;;31.13;65.24;101039.63;5067554;27;66494;-35
2021/07/16 03:11:20;;;;;;;4.10;1.52;;;;;;;31.13;64.79;101032.31;5064600;27;70290;-35
2021/07/16 03:13:50;;;;;;;2.40;1.92;;;;;;;31.14;64.58;101027.72;5046267;27;65939;-33
2021/07/16 03:16:20;;;;;;;1.67;1.23;;;;;;;31.20;64.65;101037.69;5058742;27;69301;-34
2021/07/16 03:18:50;;;;;;;2.13;1.60;;;;;;;31.22;64.41;101027.47;5073205;27;66729;-34
2021/07/16 03:21:20;;;;;;;4.75;1.60;;;;;;;31.24;64.11;101027.25;5055382;28;69833;-33
2021/07/16 03:23:50;;;;;;;4.18;1.63;;;;;;;31.22;63.96;101018.50;5070605;27;66040;-34
2021/07/16 03:26:20;;;;;;;1.70;1.45;;;;;;;31.21;64.09;101016.84;5066249;27;70136;-34
2021/07/16 03:28:51;;;;;;;1.65;1.40;;;;;;;31.29;64.39;101024.72;5072703;27;66766;-34
2021/07/16 03:31:21;;;;;;;2.83;1.60;;;;;;;31.30;63.92;101029.09;5066716;27;70261;-35
2021/07/16 03:33:51;;;;;;;2.60;2.00;;;;;;;31.30;63.95;101026.38;5070081;27;66787;-32
2021/07/16 03:36:21;;;;;;;4.72;1.67;;;;;;;31.32;63.27;101019.69;5068979;27;70279;-36
2021/07/16 03:38:52;;;;;;;4.72;1.80;;;;;;;31.32;63.07;101027.00;5069546;27;66818;-34
2021/07/16 03:41:22;;;;;;;4.03;2.60;;;;;;;31.31;62.60;101019.88;5063829;27;69256;-32
2021/07/16 03:43:52;;;;;;;9.80;2.13;;;;;;;31.35;62.75;101019.25;5067257;27;66272;-33
2021/07/16 03:46:27;;;;;;;2.25;2.05;;;;;;;31.36;62.32;101003.84;5065086;27;70577;-33
2021/07/16 03:48:57;;;;;;;2.58;2.38;;;;;;;31.41;62.11;101006.72;5068879;27;65434;-33
2021/07/16 03:51:28;;;;;;;3.00;2.53;;;;;;;31.46;61.76;101008.78;5070185;27;70071;-34
2021/07/16 03:53:59;;;;;;;8.02;2.67;;;;;;;31.48;62.16;100999.38;5068947;27;65875;-33
2021/07/16 03:56:29;;;;;;;2.55;2.35;;;;;;;31.54;62.04;101003.91;5064353;27;69083;-33
2021/07/16 03:58:59;;;;;;;3.03;1.90;;;;;;;31.58;62.54;101002.38;5067313;27;65865;-35
2021/07/16 04:01:29;;;;;;;2.63;2.40;;;;;;;31.63;62.07;101003.63;5069061;27;70129;-32
2021/07/16 04:04:00;;;;;;;2.53;2.30;;;;;;;31.67;61.75;100999.41;5068922;27;65688;-34
2021/07/16 04:06:31;;;;;;;3.67;2.63;;;;;;;31.69;61.48;101003.56;5065012;27;70193;-34
2021/07/16 04:09:20;;;;;;;4.03;2.00;;;;;;;31.70;61.46;101004.38;5066391;27;65356;-35
2021/07/16 04:11:51;;;;;;;2.65;2.13;;;;;;;31.72;60.81;100996.84;5065909;27;70206;-33
2021/07/16 04:14:21;;;;;;;3.95;2.53;;;;;;;31.74;61.31;100994.75;5048930;28;65928;-32
2021/07/16 04:16:51;;;;;;;2.97;2.58;;;;;;;31.77;60.76;100983.44;5063603;27;69705;-34
2021/07/16 04:19:21;;;;;;;4.43;3.17;;;;;;;31.75;60.97;100970.09;5067946;27;66606;-34
2021/07/16 04:21:52;;;;;;;3.05;2.53;;;;;;;31.70;60.97;100977.25;5064451;27;70031;-33
2021/07/16 04:24:24;;;;;;;3.63;2.10;;;;;;;31.72;61.32;100975.16;5069171;27;66099;-34
2021/07/16 04:26:54;;;;;;;4.78;2.50;;;;;;;31.77;60.49;100973.44;5071769;27;69665;-33
2021/07/16 04:29:24;;;;;;;3.60;2.50;;;;;;;31.82;60.45;100970.88;5053039;27;65533;-33
2021/07/16 04:31:54;;;;;;;2.58;2.30;;;;;;;31.89;59.62;100964.53;5070474;27;70520;-34
2021/07/16 04:34:26;;;;;;;2.50;2.30;;;;;;;31.97;59.82;100967.00;5065602;27;66207;-33
2021/07/16 04:36:57;;;;;;;6.22;2.13;;;;;;;31.87;59.15;100923.25;5076004;27;69612;-34
2021/07/16 04:39:28;;;;;;;3.95;2.10;;;;;;;32.08;59.05;100947.25;5069482;27;66648;-33
2021/07/16 04:41:58;;;;;;;1.90;1.80;;;;;;;32.16;58.26;100944.22;5069954;27;69882;-34
2021/07/16 04:44:32;;;;;;;1.92;1.65;;;;;;;32.19;58.27;100940.22;5068806;27;66492;-34
2021/07/16 04:47:03;;;;;;;9.60;1.83;;;;;;;32.21;58.40;100943.56;5069649;27;70369;-33
2021/07/16 04:49:33;;;;;;;2.10;1.90;;;;;;;32.21;58.49;100924.56;5072201;27;65593;-33
2021/07/16 04:52:04;;;;;;;2.67;1.90;;;;;;;32.05;58.55;100899.69;5071042;27;70804;-32
2021/07/16 04:54:34;;;;;;;4.65;2.17;;;;;;;32.26;58.76;100921.97;5068512;27;66349;-34
2021/07/16 04:57:04;;;;;;;2.83;1.77;;;;;;;32.29;59.78;100921.53;5067267;27;69886;-34
2021/07/16 04:59:35;;;;;;;4.22;1.95;;;;;;;32.24;58.54;100924.09;5074752;27;65459;-32
2021/07/16 05:02:06;;;;;;;2.67;2.00;;;;;;;32.13;57.67;100917.53;5073432;27;69624;-33
2021/07/16 05:04:38;;;;;;;10.20;1.85;;;;;;;31.92;56.70;100899.84;5068116;27;65599;-33
2021/07/16 05:07:09;;;;;;;17.15;1.88;;;;;;;31.88;55.80;100904.03;5067680;27;70017;-32
2021/07/16 05:09:39;;;;;;;13.20;1.92;;;;;;;31.76;55.21;100894.97;5073233;27;67039;-33
2021/07/16 05:12:09;;;;;;;9.60;1.83;;;;;;;31.67;54.60;100896.34;5066803;27;69962;-33
2021/07/16 05:14:39;;;;;;;12.40;1.50;;;;;;;31.54;53.96;100898.16;5072336;27;66208;-34
2021/07/16 05:17:09;;;;;;;8.55;1.17;;;;;;;31.46;52.62;100894.91;5062869;27;69861;-33
2021/07/16 05:19:39;;;;;;;16.33;1.30;;;;;;;31.34;51.19;100889.34;5066189;27;66213;-36
2021/07/16 05:22:09;;;;;;;5.93;1.13;;;;;;;31.29;51.42;100889.22;5072275;27;70540;-36
2021/07/16 05:24:40;;;;;;;2.97;0.82;;;;;;;31.18;51.35;100879.94;5073166;27;66264;-35
2021/07/16 05:27:11;;;;;;;4.38;0.80;;;;;;;31.14;49.69;100873.28;5070975;27;70246;-38
2021/07/16 05:29:46;;;;;;;10.13;0.57;;;;;;;31.07;49.20;100867.94;5066742;27;66860;-35
2021/07/16 05:32:16;;;;;;;4.25;0.70;;;;;;;30.96;48.40;100862.41;5068401;27;70527;-37
2021/07/16 05:34:48;;;;;;;4.13;0.60;;;;;;;30.96;49.27;100851.56;5065364;27;65996;-36
2021/07/16 05:37:19;;;;;;;6.47;0.70;;;;;;;30.90;48.34;100842.47;5083061;27;69569;-37
2021/07/16 05:39:50;;;;;;;1.63;0.70;;;;;;;30.85;47.50;100828.75;5066646;27;66780;-37
2021/07/16 05:42:21;;;;;;;1.00;0.47;;;;;;;30.79;47.05;100829.59;5067237;27;70019;-38
2021/07/16 05:44:55;;;;;;;1.15;0.30;;;;;;;30.76;46.40;100819.19;5065463;27;66280;-37
2021/07/16 05:47:28;;;;;;;1.65;0.50;;;;;;;30.70;46.27;100810.06;5065613;27;69947;-37
2021/07/16 05:49:59;;;;;;;0.47;0.35;;;;;;;30.64;45.63;100792.81;5068831;27;66738;-37
2021/07/16 05:52:32;;;;;;;;;;;;;;;30.37;45.90;100794.94;5066144;27;70686;-37
2021/07/16 05:55:04;;;;;;;4.15;0.50;;;;;;;30.62;45.70;100780.56;5071111;27;65679;-38
2021/07/16 05:57:35;;;;;;;3.50;0.40;;;;;;;30.66;45.92;100771.78;5068835;27;70042;-38
2021/07/16 06:00:10;;;;;;;0.90;0.30;;;;;;;30.73;44.92;100775.28;5067999;27;65916;-37
2021/07/16 06:02:42;;;;;;;0.93;0.20;;;;;;;30.69;45.13;100748.84;5066189;27;70409;-35
2021/07/16 06:05:14;;;;;;;2.88;0.30;;;;;;;30.70;44.00;100755.91;5051720;27;65498;-40
2021/07/16 06:07:46;;;;;;;8.13;0.32;;;;;;;30.73;44.87;100772.56;5068886;27;69221;-40
2021/07/16 06:10:17;;;;;;;3.13;0.20;;;;;;;30.76;44.65;100759.63;5052617;28;65926;-38
2021/07/16 06:12:48;;;;;;;6.97;0.35;;;;;;;30.72;43.52;100760.06;5069944;27;70776;-38
2021/07/16 06:15:19;;;;;;;0.65;0.30;;;;;;;30.73;43.11;100750.09;5071124;27;65492;-39
2021/07/16 06:17:56;;;;;;;0.63;0.10;;;;;;;30.78;42.70;100735.84;5076812;27;69358;-37
2021/07/16 06:20:27;;;;;;;0.73;0.30;;;;;;;30.75;42.68;100730.88;5073180;27;66051;-37
2021/07/16 06:22:58;;;;;;;0.30;0.20;;;;;;;30.79;42.64;100729.41;5071151;27;70098;-35
2021/07/16 06:25:28;;;;;;;7.43;0.50;;;;;;;30.82;42.74;100718.16;5072104;27;64566;-38
2021/07/16 06:28:01;;;;;;;;;;;;;;;30.60;43.10;100718.53;5069187;27;69296;-36
2021/07/16 06:30:31;;;;;;;1.13;0.30;;;;;;;30.88;43.57;100704.53;5067107;27;66284;-36
2021/07/16 06:33:01;;;;;;;2.58;0.20;;;;;;;30.94;42.01;100691.97;5068588;27;70346;-36
2021/07/16 06:35:31;;;;;;;0.70;0.20;;;;;;;30.99;42.46;100683.19;5070960;27;66592;-37
2021/07/16 06:38:02;;;;;;;1.02;0.20;;;;;;;31.00;42.87;100674.00;5069127;27;69611;-37
2021/07/16 06:40:32;;;;;;;2.30;0.30;;;;;;;31.04;41.90;100664.38;5071504;27;65224;-37
2021/07/16 06:43:08;;;;;;;0.60;0.30;;;;;;;31.09;42.08;100669.91;5067879;27;70047;-37
2021/07/16 06:45:39;;;;;;;0.30;0.20;;;;;;;31.10;41.41;100672.41;5062036;27;65604;-36
2021/07/16 06:48:10;;;;;;;0.45;0.22;;;;;;;31.13;41.68;100663.81;5068310;27;70231;-36
2021/07/16 06:50:41;;;;;;;0.57;0.30;;;;;;;31.09;40.92;100657.22;5069869;27;65164;-36
2021/07/16 06:53:12;;;;;;;0.20;0.20;;;;;;;31.07;41.71;100653.09;5056886;28;71210;-38
2021/07/16 06:55:43;;;;;;;0.60;0.20;;;;;;;31.09;40.71;100657.22;5070404;27;65213;-36
2021/07/16 06:58:14;;;;;;;0.30;0.30;;;;;;;31.09;41.33;100654.50;5067412;27;70790;-37
2021/07/16 07:00:45;;;;;;;2.15;0.20;;;;;;;31.07;40.53;100648.47;5067470;27;65697;-35
2021/07/16 07:03:17;;;;;;;2.03;0.20;;;;;;;31.06;41.45;100652.22;5068015;27;70226;-42
2021/07/16 07:06:03;;;;;;;0.57;0.20;;;;;;;31.04;40.45;100643.53;5068001;27;66471;-36
2021/07/16 07:08:33;;;;;;;0.60;0.30;;;;;;;31.03;39.58;100641.84;5067456;27;69941;-36
2021/07/16 07:11:05;;;;;;;0.28;0.28;;;;;;;31.07;40.01;100643.06;5079329;27;66059;-39
2021/07/16 07:13:36;;;;;;;0.20;0.15;;;;;;;31.04;40.19;100638.09;5063614;27;70017;-38
2021/07/16 07:16:15;;;;;;;0.30;0.20;;;;;;;31.04;39.52;100632.69;5070783;27;66212;-37
2021/07/16 07:18:46;;;;;;;2.92;0.20;;;;;;;31.04;39.42;100634.56;5070522;27;69898;-37
2021/07/16 07:21:16;;;;;;;0.22;0.20;;;;;;;31.04;39.90;100624.56;5067887;27;66180;-38
2021/07/16 07:23:46;;;;;;;0.30;0.28;;;;;;;31.04;39.94;100610.19;5064743;27;70223;-37
2021/07/16 07:26:17;;;;;;;5.47;0.20;;;;;;;31.02;39.49;100629.38;5068510;27;66409;-35
2021/07/16 07:28:47;;;;;;;1.25;0.30;;;;;;;31.05;40.21;100612.66;5069982;27;69975;-37
2021/07/16 07:31:18;;;;;;;0.30;0.20;;;;;;;31.02;39.92;100607.69;5066045;27;66063;-38
2021/07/16 07:33:50;;;;;;;0.60;0.20;;;;;;;31.03;39.45;100612.06;5075204;27;69768;-39
2021/07/16 07:36:21;;;;;;;0.45;0.20;;;;;;;31.01;39.11;100608.75;5072009;27;65390;-38
2021/07/16 07:38:52;;;;;;;0.20;0.20;;;;;;;31.00;38.99;100595.44;5067535;27;70301;-38
2021/07/16 07:41:22;;;;;;;0.20;0.20;;;;;;;31.01;38.20;100600.63;5070935;27;66117;-39
2021/07/16 07:43:53;;;;;;;1.08;0.20;;;;;;;31.03;38.86;100590.38;5066788;27;69199;-38
2021/07/16 07:46:25;;;;;;;0.35;0.20;;;;;;;31.01;38.83;100595.22;5071212;27;65369;-37
2021/07/16 07:48:55;;;;;;;;;;;;;;;30.75;38.17;100590.09;5066890;27;69461;-42
2021/07/16 07:51:25;;;;;;;0.22;0.20;;;;;;;30.97;38.55;100588.59;5068901;27;66179;-39
2021/07/16 07:53:56;;;;;;;0.43;0.20;;;;;;;30.98;38.47;100595.69;5073484;27;69451;-37
2021/07/16 07:56:32;;;;;;;0.38;0.38;;;;;;;30.99;38.97;100582.97;5073138;27;65753;-40
2021/07/16 07:59:04;;;;;;;0.32;0.20;;;;;;;30.98;39.93;100582.13;5067248;27;70869;-38
2021/07/16 08:01:35;;;;;;;1.63;0.50;;;;;;;31.03;42.25;100576.84;5068884;27;65507;-41
2021/07/16 08:04:06;;;;;;;3.72;0.50;;;;;;;31.03;44.05;100563.28;5069576;27;70437;-37
2021/07/16 08:06:39;;;;;;;1.10;0.68;;;;;;;31.14;45.68;100576.06;5087320;27;65414;-39
2021/07/16 08:09:11;;;;;;;2.33;0.80;;;;;;;31.17;47.30;100572.91;5073211;27;70200;-38
2021/07/16 08:11:43;;;;;;;5.03;0.95;;;;;;;31.27;48.71;100560.69;5073100;27;66493;-38
2021/07/16 08:14:14;;;;;;;11.73;0.75;;;;;;;31.28;51.55;100556.91;5068624;27;70064;-34
2021/07/16 08:16:46;;;;;;;1.50;0.70;;;;;;;31.33;52.28;100559.75;5069353;27;65565;-37
2021/07/16 08:19:18;;;;;;;7.13;0.75;;;;;;;31.40;53.37;100555.09;5069584;27;69735;-39
2021/07/16 08:21:54;;;;;;;7.65;0.80;;;;;;;31.29;54.58;100531.47;5070112;27;66185;-36
2021/07/16 08:24:24;;;;;;;3.40;0.75;;;;;;;31.50;54.37;100566.19;5054204;27;70397;-35
2021/07/16 08:26:55;;;;;;;2.38;0.68;;;;;;;31.53;54.60;100560.31;5069560;27;65691;-40
2021/07/16 08:29:30;;;;;;;2.45;0.80;;;;;;;31.61;55.03;100562.69;5072886;27;69666;-36
2021/07/16 08:32:01;;;;;;;3.80;0.90;;;;;;;31.65;55.58;100551.38;5072564;27;65557;-41
2021/07/16 08:34:32;;;;;;;2.83;1.27;;;;;;;31.80;55.68;100559.88;5073045;27;68985;-40
2021/07/16 08:37:03;;;;;;;1.97;1.60;;;;;;;31.94;56.41;100542.34;5070624;27;66175;-36
2021/07/16 08:39:33;;;;;;;6.30;1.60;;;;;;;31.92;55.77;100525.47;5072319;27;69384;-37
2021/07/16 08:42:05;;;;;;;4.32;1.08;;;;;;;32.22;54.91;100546.25;5068594;27;65931;-38
2021/07/16 08:44:42;;;;;;;3.45;2.08;;;;;;;32.33;55.51;100550.81;5072224;27;71042;-40
2021/07/16 08:47:13;;;;;;;6.63;2.13;;;;;;;32.40;54.98;100542.53;5070781;27;66060;-36
2021/07/16 08:49:45;;;;;;;4.55;2.60;;;;;;;32.48;56.07;100545.78;5071587;27;69671;-37
2021/07/16 08:52:17;;;;;;;7.77;2.70;;;;;;;32.56;55.09;100549.16;5069039;27;65548;-35
2021/07/16 08:54:50;;;;;;;5.22;2.28;;;;;;;32.62;54.22;100550.91;5068779;27;70138;-39
2021/07/16 08:57:24;;;;;;;2.83;2.30;;;;;;;32.70;53.58;100545.91;5068874;27;65246;-37
2021/07/16 08:59:55;;;;;;;3.20;2.67;;;;;;;32.75;54.08;100556.06;5061612;27;70401;-36
2021/07/16 09:02:31;;;;;;;15.57;3.10;;;;;;;32.77;53.67;100543.09;5064103;27;66259;-36
2021/07/16 09:05:10;;;;;;;2.83;2.40;;;;;;;32.81;53.50;100546.97;5048826;28;70537;-36
2021/07/16 09:07:48;;;;;;;5.32;4.82;;;;;;;32.83;53.79;100542.13;5067815;27;66189;-38
2021/07/16 09:10:22;;;;;;;5.60;3.65;;;;;;;32.89;54.97;100551.19;5066236;27;69790;-36
2021/07/16 09:13:00;;;;;;;4.32;3.92;;;;;;;32.85;54.80;100539.16;5064660;27;65299;-36
2021/07/16 09:15:31;;;;;;;3.22;2.95;;;;;;;32.91;55.25;100549.88;5067929;27;71124;-35
2021/07/16 09:18:21;;;;;;;7.72;2.42;;;;;;;32.89;55.72;100549.28;5054884;27;65222;-39
2021/07/16 09:21:06;;;;;;;7.07;2.50;;;;;;;32.95;56.08;100555.66;5071181;27;70082;-36
2021/07/16 09:23:46;;;;;;;16.90;2.47;;;;;;;33.05;55.02;100544.19;5072188;27;65761;-36
2021/07/16 09:26:28;;;;;;;3.88;2.65;;;;;;;33.10;55.88;100538.84;5069946;27;69482;-41
2021/07/16 09:28:59;;;;;;;4.90;2.80;;;;;;;33.16;55.10;100556.91;5069095;27;66407;-43
2021/07/16 09:31:38;;;;;;;3.22;2.35;;;;;;;33.00;55.31;100509.59;5054013;27;69238;-36
2021/07/16 09:34:12;;;;;;;3.33;2.30;;;;;;;33.24;53.92;100548.34;5067991;27;66845;-36
2021/07/16 09:36:53;;;;;;;11.13;3.10;;;;;;;33.10;55.11;100528.00;5064989;27;69476;-37
2021/07/16 09:39:25;;;;;;;2.53;2.20;;;;;;;33.26;55.25;100550.81;5053298;28;66992;-39
2021/07/16 09:41:57;;;;;;;4.50;2.20;;;;;;;33.22;53.59;100539.63;5069074;27;70030;-41
2021/07/16 09:44:34;;;;;;;3.28;2.40;;;;;;;33.30;55.22;100552.81;5079180;27;65492;-38
2021/07/16 09:47:16;;;;;;;3.13;2.40;;;;;;;33.31;55.57;100561.78;5071033;27;70766;-38
2021/07/16 09:50:07;;;;;;;3.08;2.17;;;;;;;33.25;54.68;100565.47;5059375;27;66338;-38
2021/07/16 09:52:39;;;;;;;6.60;2.83;;;;;;;33.29;54.00;100567.47;5070068;27;69816;-42
2021/07/16 09:55:21;;;;;;;4.00;2.13;;;;;;;33.30;54.42;100568.28;5066786;27;66559;-40
2021/07/16 09:57:58;;;;;;;3.22;2.83;;;;;;;33.27;55.35;100575.03;5070464;27;69936;-41
2021/07/16 10:00:29;;;;;;;4.05;2.80;;;;;;;33.27;54.15;100575.03;5049788;27;65692;-37
2021/07/16 10:03:01;;;;;;;2.40;2.20;;;;;;;33.22;54.73;100569.50;5064351;27;70405;-38
2021/07/16 10:05:36;;;;;;;6.65;2.30;;;;;;;33.28;55.65;100582.13;5064723;27;66060;-39
2021/07/16 10:08:08;;;;;;;2.72;2.15;;;;;;;33.29;53.95;100586.50;5072149;27;69572;-38
2021/07/16 10:10:39;;;;;;;;;;;;;;;33.06;54.03;100594.75;5071997;27;66657;-41
2021/07/16 10:13:12;;;;;;;3.05;1.70;;;;;;;33.31;53.91;100600.66;5067948;27;69869;-41
2021/07/16 10:15:44;;;;;;;15.50;2.22;;;;;;;33.28;55.90;100587.56;5069840;27;67043;-40
2021/07/16 10:18:14;;;;;;;;;;;;;;;33.03;57.42;100603.38;5072609;27;69358;-34
2021/07/16 10:20:45;;;;;;;7.93;2.08;;;;;;;33.24;57.64;100602.72;5069412;27;66818;-34
2021/07/16 10:23:16;;;;;;;6.47;2.10;;;;;;;33.25;58.15;100611.69;5071447;27;70345;-37
2021/07/16 10:25:49;;;;;;;2.38;1.80;;;;;;;33.19;58.47;100607.22;5065577;27;66175;-36
2021/07/16 10:28:35;;;;;;;9.77;2.30;;;;;;;33.15;58.89;100612.31;5071710;27;70189;-35
2021/07/16 10:31:29;;;;;;;2.40;2.15;;;;;;;33.12;59.25;100626.38;5062693;27;66213;-38
2021/07/16 10:34:12;;;;;;;11.18;1.80;;;;;;;33.20;58.53;100639.59;5036757;28;69893;-36
2021/07/16 10:36:46;;;;;;;2.92;1.85;;;;;;;33.01;58.73;100602.78;5066446;27;66803;-36
2021/07/16 10:39:50;;;;;;;5.55;1.60;;;;;;;33.05;59.34;100628.44;5065158;27;69441;-37
2021/07/16 10:42:26;;;;;;;2.08;1.33;;;;;;;33.12;58.64;100627.19;5067641;27;65608;-37
2021/07/16 10:44:59;;;;;;;1.65;1.50;;;;;;;33.13;58.21;100636.22;5069146;27;69833;-37
2021/07/16 10:47:37;;;;;;;3.20;1.42;;;;;;;32.99;58.26;100615.75;5069244;27;66619;-37
2021/07/16 10:50:32;;;;;;;2.78;1.40;;;;;;;32.91;58.01;100615.09;5069276;27;69372;-36
2021/07/16 10:53:04;;;;;;;6.55;1.40;;;;;;;33.07;58.14;100640.72;5061367;27;65782;-35
2021/07/16 10:55:35;;;;;;;1.90;1.40;;;;;;;33.05;57.92;100631.97;5067075;27;70063;-36
2021/07/16 10:58:24;;;;;;;1.60;1.08;;;;;;;32.99;58.22;100643.78;5068302;27;66211;-39
2021/07/16 11:00:55;;;;;;;4.20;1.35;;;;;;;33.05;57.93;100647.47;5067411;27;70067;-36
2021/07/16 11:03:45;;;;;;;5.45;1.30;;;;;;;32.93;58.06;100650.16;5069930;27;66007;-38
2021/07/16 11:06:18;;;;;;;1.30;1.20;;;;;;;33.03;57.88;100646.88;5068558;27;70050;-37
2021/07/16 11:08:50;;;;;;;4.78;1.27;;;;;;;33.05;57.86;100652.88;5070998;27;65562;-37
2021/07/16 11:11:35;;;;;;;2.08;1.52;;;;;;;32.91;57.95;100639.53;5063741;27;69884;-36
2021/07/16 11:14:19;;;;;;;1.75;1.40;;;;;;;33.01;57.82;100651.69;5064175;27;66492;-36
2021/07/16 11:17:02;;;;;;;1.90;1.80;;;;;;;32.99;58.16;100656.50;5064804;27;69232;-38
2021/07/16 11:19:33;;;;;;;2.42;1.48;;;;;;;33.03;58.07;100671.31;5067903;27;65652;-36
2021/07/16 11:22:05;;;;;;;2.50;1.90;;;;;;;33.03;58.22;100665.88;5071845;27;70246;-37
2021/07/16 11:24:40;;;;;;;2.30;2.00;;;;;;;33.04;58.09;100672.97;5063307;27;65910;-40
2021/07/16 11:27:15;;;;;;;1.70;1.60;;;;;;;32.83;58.20;100629.03;5064477;27;70934;-37
2021/07/16 11:29:50;;;;;;;2.00;1.90;;;;;;;33.03;58.29;100663.16;5065222;27;66548;-36
2021/07/16 11:32:25;;;;;;;2.78;2.10;;;;;;;32.73;58.73;100617.94;5064610;27;70340;-37
2021/07/16 11:35:10;;;;;;;2.15;1.80;;;;;;;32.95;56.82;100675.19;5065348;27;65313;-39
2021/07/16 11:37:50;;;;;;;9.32;2.50;;;;;;;32.82;56.17;100681.72;5061682;27;70180;-35
2021/07/16 11:40:23;;;;;;;11.77;2.13;;;;;;;32.69;55.46;100677.38;5064983;27;65576;-34
2021/07/16 11:42:56;;;;;;;10.38;2.03;;;;;;;32.49;53.67;100672.31;5067507;27;69381;-36
2021/07/16 11:45:31;;;;;;;2.58;1.65;;;;;;;32.25;52.29;100649.72;5065452;27;66026;-36
2021/07/16 11:48:17;;;;;;;9.20;1.60;;;;;;;32.24;51.42;100696.09;5069412;27;69954;-36
2021/07/16 11:50:48;;;;;;;9.60;1.42;;;;;;;32.10;50.46;100690.06;5066880;27;65530;-36